Time;durP1;ratioP1;P1;durP2;ratioP2;P2;SDS_P1;SDS_P2;PMS_P1;PMS_P2;Temp;Humidity;BMP_temperature;BMP_pressure;BME280_temperature;BME280_humidity;BME280_pressure;Samples;Min_cycle;Max_cycle;Signal;HPM_P1;HPM_P2
2022/04/25 00:02:05;;;;;;;3.78;1.70;;;9.70;69.00;;;;;;5007444;28;20112;-84
2022/04/25 00:04:32;;;;;;;3.40;1.67;;;9.70;69.20;;;;;;4982656;28;20042;-84
2022/04/25 00:07:03;;;;;;;3.38;1.67;;;9.70;69.30;;;;;;4980233;28;20140;-84
2022/04/25 00:09:30;;;;;;;3.55;1.42;;;9.70;69.30;;;;;;4998815;28;20052;-89
2022/04/25 00:11:57;;;;;;;5.28;1.40;;;9.60;69.40;;;;;;5013677;28;20045;-89
2022/04/25 00:14:24;;;;;;;2.47;1.40;;;9.60;69.50;;;;;;5003597;28;20153;-90
2022/04/25 00:16:56;;;;;;;3.13;1.42;;;9.60;69.60;;;;;;4983758;28;20041;-89
2022/04/25 00:19:23;;;;;;;1.67;0.80;;;9.50;69.70;;;;;;4988571;28;20046;-89
2022/04/25 00:21:51;;;;;;;3.80;1.13;;;9.50;69.70;;;;;;4982704;28;20464;-89
2022/04/25 00:24:19;;;;;;;2.38;1.10;;;9.50;69.90;;;;;;4979092;28;20046;-89
2022/04/25 00:26:46;;;;;;;2.92;1.55;;;9.40;69.90;;;;;;5002748;28;20052;-89
2022/04/25 00:29:16;;;;;;;3.25;1.65;;;9.40;70.10;;;;;;5005266;28;20144;-89
2022/04/25 00:31:43;;;;;;;3.30;1.30;;;9.40;70.30;;;;;;5008890;28;20138;-89
2022/04/25 00:34:11;;;;;;;3.00;1.48;;;9.40;70.30;;;;;;4984990;28;20073;-88
2022/04/25 00:36:38;;;;;;;3.17;1.42;;;9.40;70.40;;;;;;5016418;28;20073;-89
2022/04/25 00:39:05;;;;;;;3.33;1.55;;;9.30;70.50;;;;;;5017145;28;20077;-89
2022/04/25 00:41:33;;;;;;;3.00;1.30;;;9.30;70.80;;;;;;5004396;28;20092;-89
2022/04/25 00:44:00;;;;;;;2.65;1.10;;;9.30;70.80;;;;;;4994444;28;20042;-89
2022/04/25 00:46:27;;;;;;;2.28;1.23;;;9.30;70.70;;;;;;5007032;28;20074;-89
2022/04/25 00:48:54;;;;;;;3.30;1.27;;;9.30;70.90;;;;;;5009518;28;20050;-89
2022/04/25 00:51:22;;;;;;;3.55;2.03;;;9.30;70.90;;;;;;4982507;28;20045;-89
2022/04/25 00:53:51;;;;;;;2.58;1.10;;;9.30;70.90;;;;;;5009191;28;20046;-89
2022/04/25 00:56:19;;;;;;;3.88;1.95;;;9.20;71.00;;;;;;4997084;28;20049;-89
2022/04/25 00:58:49;;;;;;;3.05;1.20;;;9.20;71.00;;;;;;5001610;28;20045;-89
2022/04/25 01:01:16;;;;;;;3.47;1.15;;;9.20;71.10;;;;;;4996828;28;20045;-89
2022/04/25 01:03:53;;;;;;;4.70;1.80;;;9.20;71.20;;;;;;5006877;28;20042;-88
2022/04/25 01:06:21;;;;;;;4.05;2.55;;;9.20;71.50;;;;;;5011103;28;20061;-89
2022/04/25 01:08:50;;;;;;;4.50;1.80;;;9.10;71.50;;;;;;5012891;28;20077;-89
2022/04/25 01:11:18;;;;;;;5.03;1.85;;;9.10;71.70;;;;;;4997858;28;20043;-89
2022/04/25 01:13:45;;;;;;;3.00;1.40;;;9.00;71.70;;;;;;5008618;28;20566;-89
2022/04/25 01:16:12;;;;;;;4.75;1.80;;;9.00;71.80;;;;;;5007639;28;20069;-90
2022/04/25 01:18:39;;;;;;;3.67;1.70;;;9.10;71.90;;;;;;4986954;28;20037;-89
2022/04/25 01:21:10;;;;;;;4.28;1.45;;;9.10;71.90;;;;;;4995904;28;20050;-89
2022/04/25 01:29:10;;;;;;;3.45;1.90;;;9.00;72.10;;;;;;4984185;28;20057;-90
2022/04/25 01:31:37;;;;;;;3.33;1.52;;;9.00;72.30;;;;;;5003564;28;20080;-89
2022/04/25 01:34:04;;;;;;;4.65;2.28;;;9.00;72.20;;;;;;4980389;28;20054;-89
2022/04/25 01:36:34;;;;;;;3.65;2.13;;;9.00;72.40;;;;;;4967722;28;20144;-89
2022/04/25 01:39:01;;;;;;;3.92;1.92;;;8.90;72.40;;;;;;4980729;28;20116;-89
2022/04/25 01:41:28;;;;;;;3.70;2.28;;;8.90;72.60;;;;;;5003265;28;20106;-89
2022/04/25 01:43:56;;;;;;;3.83;1.77;;;8.90;72.70;;;;;;4996395;28;20065;-89
2022/04/25 01:46:23;;;;;;;6.10;2.95;;;8.80;72.90;;;;;;4996083;28;20051;-89
2022/04/25 01:48:50;;;;;;;5.07;1.92;;;8.80;73.10;;;;;;4997590;28;20583;-89
2022/04/25 01:51:17;;;;;;;3.40;1.90;;;8.80;73.10;;;;;;4979735;28;20042;-89
2022/04/25 01:53:44;;;;;;;2.88;1.48;;;8.80;73.10;;;;;;4983479;28;20409;-89
2022/04/25 01:56:11;;;;;;;3.80;2.10;;;8.80;73.20;;;;;;5012504;28;20041;-89
2022/04/25 01:58:39;;;;;;;3.97;2.03;;;8.80;73.30;;;;;;4985834;28;20129;-89
2022/04/25 02:01:06;;;;;;;4.32;2.20;;;8.80;73.50;;;;;;4995426;28;20042;-88
2022/04/25 02:03:35;;;;;;;4.68;2.58;;;8.80;73.70;;;;;;5012417;28;20100;-89
2022/04/25 02:06:02;;;;;;;4.63;1.83;;;8.80;73.60;;;;;;4995776;28;20070;-89
2022/04/25 02:08:29;;;;;;;3.83;2.03;;;8.70;73.60;;;;;;4980193;28;20052;-88
2022/04/25 02:13:42;;;;;;;3.72;1.92;;;8.60;73.70;;;;;;5005194;28;20042;-89
2022/04/25 02:16:09;;;;;;;3.97;1.88;;;8.60;73.80;;;;;;5013224;28;20044;-88
2022/04/25 02:18:36;;;;;;;5.15;2.03;;;8.60;73.90;;;;;;4996302;28;20519;-89
2022/04/25 02:21:03;;;;;;;3.33;1.50;;;8.60;74.00;;;;;;4997212;28;20498;-88
2022/04/25 02:23:30;;;;;;;3.42;1.70;;;8.50;74.20;;;;;;4996352;28;20482;-89
2022/04/25 02:25:57;;;;;;;2.95;1.38;;;8.50;74.30;;;;;;4999940;28;20045;-88
2022/04/25 02:28:25;;;;;;;3.97;1.90;;;8.50;74.30;;;;;;4999940;28;20049;-88
2022/04/25 02:30:52;;;;;;;3.70;1.40;;;8.40;74.30;;;;;;4981862;28;20053;-89
2022/04/25 02:33:19;;;;;;;3.08;1.67;;;8.40;74.40;;;;;;4999291;28;20553;-88
2022/04/25 02:35:47;;;;;;;3.10;1.40;;;8.40;74.50;;;;;;4991224;28;20042;-88
2022/04/25 02:38:16;;;;;;;3.03;1.27;;;8.40;74.60;;;;;;5009923;28;20049;-88
2022/04/25 02:40:43;;;;;;;4.05;1.70;;;8.30;74.60;;;;;;4981573;28;20046;-89
2022/04/25 02:43:10;;;;;;;2.83;1.33;;;8.30;74.70;;;;;;5028843;28;20038;-89
2022/04/25 02:45:38;;;;;;;3.63;1.73;;;8.30;74.70;;;;;;4982859;28;20053;-88
2022/04/25 02:48:05;;;;;;;3.45;1.85;;;8.30;74.70;;;;;;5008558;28;20084;-89
2022/04/25 02:50:32;;;;;;;2.80;1.30;;;8.40;75.00;;;;;;4999162;28;20042;-89
2022/04/25 02:52:59;;;;;;;4.50;2.15;;;8.40;74.90;;;;;;5015291;28;20144;-88
2022/04/25 02:55:26;;;;;;;3.65;1.70;;;8.40;74.90;;;;;;4998136;28;20054;-88
2022/04/25 02:57:54;;;;;;;2.97;1.33;;;8.30;74.90;;;;;;4982977;28;20445;-89
2022/04/25 03:00:21;;;;;;;5.13;2.28;;;8.30;75.00;;;;;;5013904;28;20103;-89
2022/04/25 03:02:48;;;;;;;3.92;2.15;;;8.20;75.40;;;;;;5017259;28;20076;-89
2022/04/25 03:05:16;;;;;;;2.95;2.00;;;8.20;75.30;;;;;;5011630;28;20056;-88
2022/04/25 03:07:44;;;;;;;4.18;1.88;;;8.20;75.40;;;;;;5013256;28;20046;-88
2022/04/25 03:10:11;;;;;;;3.92;1.67;;;8.20;75.50;;;;;;5015088;28;20060;-88
2022/04/25 03:12:38;;;;;;;4.00;1.52;;;8.20;75.50;;;;;;5008696;28;20054;-87
2022/04/25 03:15:06;;;;;;;4.05;1.88;;;8.20;75.60;;;;;;4985476;28;20049;-88
2022/04/25 03:17:33;;;;;;;3.83;1.85;;;8.10;75.60;;;;;;4982360;28;20096;-89
2022/04/25 03:20:01;;;;;;;4.03;1.92;;;8.20;75.70;;;;;;4997919;28;20561;-89
2022/04/25 03:22:28;;;;;;;4.38;2.65;;;8.20;75.80;;;;;;4981871;28;20132;-88
2022/04/25 03:24:55;;;;;;;4.68;2.65;;;8.20;75.70;;;;;;4998447;28;20518;-88
2022/04/25 03:27:22;;;;;;;5.63;2.05;;;8.20;75.80;;;;;;4994176;28;20045;-89
2022/04/25 03:29:49;;;;;;;5.30;2.92;;;8.30;75.80;;;;;;5011189;28;20068;-88
2022/04/25 03:32:16;;;;;;;6.75;2.20;;;8.30;75.90;;;;;;4979226;28;20118;-88
2022/04/25 03:34:43;;;;;;;5.45;3.25;;;8.30;75.80;;;;;;5000030;28;20159;-89
2022/04/25 03:37:13;;;;;;;5.85;2.60;;;8.30;75.90;;;;;;4993574;28;20045;-90
2022/04/25 03:39:40;;;;;;;4.85;2.50;;;8.30;75.90;;;;;;4984797;28;20494;-89
2022/04/25 03:42:07;;;;;;;4.30;2.53;;;8.40;75.90;;;;;;4997848;28;20042;-89
2022/04/25 03:44:34;;;;;;;5.82;2.00;;;8.40;75.90;;;;;;4998225;28;20081;-90
2022/04/25 03:47:01;;;;;;;3.60;1.70;;;8.50;75.80;;;;;;4983026;28;20053;-90
2022/04/25 03:49:28;;;;;;;4.15;2.15;;;8.50;75.70;;;;;;4992374;28;20056;-90
2022/04/25 03:51:55;;;;;;;3.30;1.60;;;8.60;75.70;;;;;;5012434;28;20054;-90
2022/04/25 03:57:15;;;;;;;3.90;1.85;;;8.70;75.60;;;;;;4993515;28;20113;-90
2022/04/25 03:59:42;;;;;;;3.15;1.77;;;8.70;75.60;;;;;;4998390;28;20574;-90
2022/04/25 04:02:09;;;;;;;6.50;2.25;;;8.80;75.60;;;;;;5000431;28;20048;-90
2022/04/25 04:04:37;;;;;;;2.78;1.45;;;8.80;76.20;;;;;;5017022;28;20041;-90
2022/04/25 04:07:05;;;;;;;5.28;2.78;;;8.80;75.50;;;;;;5014193;28;20145;-90
2022/04/25 04:09:47;;;;;;;4.65;2.22;;;8.90;75.70;;;;;;5002229;28;20125;-90
2022/04/25 04:12:19;;;;;;;5.40;2.63;;;8.90;75.60;;;;;;5014461;28;20061;-90
2022/04/25 04:14:46;;;;;;;5.63;3.03;;;8.90;75.70;;;;;;4987326;28;20140;-91
2022/04/25 04:17:17;;;;;;;7.50;2.88;;;9.00;75.70;;;;;;5013778;28;20041;-90
2022/04/25 04:19:46;;;;;;;5.15;3.03;;;9.00;75.90;;;;;;4994293;28;20050;-90
2022/04/25 04:22:15;;;;;;;5.10;2.90;;;9.00;75.90;;;;;;4992969;28;20451;-89
2022/04/25 04:24:42;;;;;;;6.40;3.90;;;9.10;76.00;;;;;;4997707;28;20052;-91
2022/04/25 04:27:09;;;;;;;7.25;3.45;;;9.10;76.00;;;;;;4994014;28;20483;-90
2022/04/25 04:29:36;;;;;;;9.43;5.35;;;9.10;76.00;;;;;;4983238;28;20046;-90
2022/04/25 04:32:07;;;;;;;7.65;3.95;;;9.10;76.20;;;;;;5013130;28;20049;-90
2022/04/25 04:34:36;;;;;;;5.82;3.78;;;9.10;76.20;;;;;;5003339;28;20046;-90
2022/04/25 04:37:03;;;;;;;6.28;2.85;;;9.20;76.30;;;;;;5002510;28;20042;-90
2022/04/25 04:39:31;;;;;;;5.95;3.40;;;9.20;76.20;;;;;;4993982;28;20155;-90
2022/04/25 04:41:58;;;;;;;6.00;3.58;;;9.20;76.30;;;;;;4998088;28;20038;-89
2022/04/25 04:44:26;;;;;;;5.43;3.00;;;9.20;76.30;;;;;;4996925;28;20413;-90
2022/04/25 04:46:53;;;;;;;6.65;4.05;;;9.20;76.40;;;;;;5012779;28;20056;-91
2022/04/25 04:49:20;;;;;;;7.47;4.05;;;9.20;76.40;;;;;;4987577;28;20046;-91
2022/04/25 04:51:47;;;;;;;6.93;4.50;;;9.30;76.40;;;;;;4994041;28;20126;-90
2022/04/25 04:54:15;;;;;;;8.80;4.10;;;9.30;76.50;;;;;;4988301;28;20050;-90
2022/04/25 04:56:42;;;;;;;6.28;3.78;;;9.30;76.60;;;;;;4998404;28;20152;-85
2022/04/25 04:59:09;;;;;;;7.18;4.55;;;9.30;76.60;;;;;;5015262;28;20038;-85
2022/04/25 05:01:36;;;;;;;7.40;3.60;;;9.30;76.70;;;;;;4987138;28;20069;-84
2022/04/25 05:04:04;;;;;;;5.57;3.10;;;9.30;76.80;;;;;;4993182;28;20068;-84
2022/04/25 05:06:31;;;;;;;4.88;3.00;;;9.30;76.80;;;;;;4994432;28;20041;-85
2022/04/25 05:08:58;;;;;;;5.53;3.15;;;9.40;76.80;;;;;;4996438;28;20049;-84
2022/04/25 05:11:28;;;;;;;4.38;2.20;;;9.40;76.70;;;;;;5003342;28;20046;-85
2022/04/25 05:13:55;;;;;;;4.97;2.80;;;9.40;76.70;;;;;;4990147;28;20795;-86
2022/04/25 05:16:23;;;;;;;6.40;3.58;;;9.40;76.70;;;;;;5000336;28;20076;-86
2022/04/25 05:18:50;;;;;;;5.75;3.55;;;9.40;76.80;;;;;;5027950;28;20046;-85
2022/04/25 05:21:17;;;;;;;7.53;3.97;;;9.40;76.90;;;;;;5001358;28;20153;-85
2022/04/25 05:23:50;;;;;;;4.70;2.92;;;9.40;76.90;;;;;;4988675;28;20041;-83
2022/04/25 05:26:17;;;;;;;5.40;3.30;;;9.40;76.90;;;;;;4985138;28;20058;-84
2022/04/25 05:28:44;;;;;;;6.85;3.88;;;9.40;76.90;;;;;;5003066;28;20052;-84
2022/04/25 05:31:11;;;;;;;6.22;3.28;;;9.50;77.00;;;;;;4994255;28;20037;-83
2022/04/25 05:33:39;;;;;;;4.63;3.03;;;9.40;77.00;;;;;;4994429;28;20046;-84
2022/04/25 05:36:06;;;;;;;4.78;3.00;;;9.50;77.00;;;;;;4981448;28;20037;-84
2022/04/25 05:38:33;;;;;;;6.45;3.72;;;9.50;77.10;;;;;;4997828;28;20047;-84
2022/04/25 05:41:00;;;;;;;7.20;4.22;;;9.50;77.20;;;;;;5006879;28;20072;-85
2022/04/25 05:43:27;;;;;;;9.90;4.82;;;9.40;77.20;;;;;;5012028;28;20045;-84
2022/04/25 05:45:55;;;;;;;9.32;5.13;;;9.40;77.30;;;;;;5002190;28;20133;-90
2022/04/25 05:53:53;;;;;;;6.78;4.25;;;9.40;77.60;;;;;;5018436;28;20589;-88
2022/04/25 05:56:20;;;;;;;7.75;4.43;;;9.40;77.60;;;;;;5002724;28;20490;-88
2022/04/25 05:58:47;;;;;;;7.05;3.92;;;9.40;77.60;;;;;;4998664;28;20479;-90
2022/04/25 06:01:15;;;;;;;9.93;5.22;;;9.50;77.60;;;;;;5021096;28;20045;-88
2022/04/25 06:03:42;;;;;;;8.27;4.95;;;9.40;77.60;;;;;;4986244;28;20081;-89
2022/04/25 06:06:09;;;;;;;8.15;4.72;;;9.40;77.60;;;;;;5002077;28;20068;-89
2022/04/25 06:08:37;;;;;;;9.43;5.45;;;9.50;77.70;;;;;;5025168;28;20072;-90
2022/04/25 06:11:04;;;;;;;9.60;5.30;;;9.50;77.80;;;;;;4992097;28;20049;-86
2022/04/25 06:13:31;;;;;;;9.85;5.00;;;9.50;77.80;;;;;;5009000;28;20042;-85
2022/04/25 06:15:59;;;;;;;9.27;4.72;;;9.50;77.80;;;;;;5000771;28;20471;-86
2022/04/25 06:18:26;;;;;;;7.53;4.70;;;9.60;77.70;;;;;;4996855;28;20045;-86
2022/04/25 06:20:53;;;;;;;9.40;5.35;;;9.70;77.70;;;;;;5001823;28;20493;-85
2022/04/25 06:23:21;;;;;;;8.30;5.93;;;9.70;77.70;;;;;;5018240;28;20033;-87
2022/04/25 06:25:48;;;;;;;12.05;6.38;;;9.70;77.80;;;;;;5004424;28;20136;-85
2022/04/25 06:28:15;;;;;;;11.75;7.65;;;9.70;77.90;;;;;;5005566;28;20049;-87
2022/04/25 06:30:42;;;;;;;11.52;7.57;;;9.70;78.00;;;;;;4985462;28;20049;-84
2022/04/25 06:33:09;;;;;;;8.90;5.38;;;9.80;78.00;;;;;;5001290;28;20050;-83
2022/04/25 06:35:37;;;;;;;12.60;7.07;;;9.80;77.90;;;;;;4969413;28;20042;-86
2022/04/25 06:38:04;;;;;;;11.30;6.57;;;9.90;78.10;;;;;;4994875;28;20041;-87
2022/04/25 06:40:31;;;;;;;10.18;7.07;;;9.90;78.10;;;;;;5002700;28;20042;-87
2022/04/25 06:43:02;;;;;;;12.07;7.18;;;9.90;78.30;;;;;;4971424;28;20038;-84
2022/04/25 06:45:30;;;;;;;8.68;5.63;;;9.90;78.30;;;;;;5001937;28;20053;-85
2022/04/25 06:47:57;;;;;;;9.95;6.60;;;9.80;78.30;;;;;;5001631;28;20054;-85
2022/04/25 06:50:24;;;;;;;8.30;4.90;;;9.80;79.10;;;;;;4980105;28;20528;-85
2022/04/25 06:52:53;;;;;;;10.02;6.03;;;9.90;78.60;;;;;;5001735;28;20049;-85
2022/04/25 06:55:20;;;;;;;9.48;5.78;;;9.80;78.60;;;;;;5002454;28;20046;-85
2022/04/25 06:57:52;;;;;;;8.82;5.88;;;9.80;78.80;;;;;;4988538;28;20060;-84
2022/04/25 07:00:22;;;;;;;9.25;6.05;;;9.80;78.90;;;;;;5000414;28;20045;-85
2022/04/25 07:03:05;;;;;;;6.80;4.63;;;9.70;79.00;;;;;;5009069;28;20140;-87
2022/04/25 07:05:34;;;;;;;8.68;4.90;;;9.70;79.10;;;;;;4979148;28;20034;-86
2022/04/25 07:08:01;;;;;;;9.02;6.50;;;9.70;79.20;;;;;;4972850;28;20069;-85
2022/04/25 07:10:29;;;;;;;8.82;5.32;;;9.70;79.40;;;;;;5014414;28;20046;-86
2022/04/25 07:12:56;;;;;;;9.65;6.63;;;9.60;79.50;;;;;;5011681;28;20075;-86
2022/04/25 07:15:24;;;;;;;10.90;5.93;;;9.60;79.60;;;;;;5014409;28;20050;-85
2022/04/25 07:17:56;;;;;;;9.35;6.13;;;9.50;79.80;;;;;;5001693;28;20051;-85
2022/04/25 07:20:24;;;;;;;8.23;4.57;;;9.50;80.00;;;;;;5001510;28;20772;-87
2022/04/25 07:31:11;;;;;;;8.70;5.75;;;9.30;80.40;;;;;;5013938;28;20403;-86
2022/04/25 07:33:43;;;;;;;11.43;7.45;;;9.20;80.40;;;;;;5005675;28;20136;-85
2022/04/25 07:36:11;;;;;;;10.50;6.25;;;9.20;80.80;;;;;;5009451;28;20046;-83
2022/04/25 07:38:44;;;;;;;10.38;7.28;;;9.20;80.80;;;;;;4996927;28;20038;-85
2022/04/25 07:41:13;;;;;;;11.40;7.32;;;9.20;81.00;;;;;;5005044;28;20046;-85
2022/04/25 07:43:43;;;;;;;12.80;7.20;;;9.20;81.10;;;;;;4983377;28;20045;-85
2022/04/25 07:46:16;;;;;;;11.25;6.90;;;9.20;81.20;;;;;;4989575;28;20509;-85
2022/04/25 07:48:46;;;;;;;8.82;6.53;;;9.20;81.30;;;;;;5007269;28;20074;-87
2022/04/25 07:51:15;;;;;;;10.32;6.72;;;9.20;81.20;;;;;;5021782;28;20050;-86
2022/04/25 07:53:43;;;;;;;11.73;7.13;;;9.20;81.20;;;;;;4997749;28;20509;-86
2022/04/25 07:56:10;;;;;;;9.98;6.53;;;9.20;81.30;;;;;;5007008;28;20099;-85
2022/04/25 07:58:37;;;;;;;9.82;6.03;;;9.20;81.40;;;;;;4997488;28;20521;-85
2022/04/25 08:01:04;;;;;;;7.47;4.68;;;9.20;81.40;;;;;;4978179;28;20042;-85
2022/04/25 08:03:34;;;;;;;10.35;7.43;;;9.20;81.30;;;;;;5002963;28;20050;-85
2022/04/25 08:06:03;;;;;;;9.98;6.05;;;9.20;81.30;;;;;;5007270;28;20042;-85
2022/04/25 08:08:32;;;;;;;9.82;5.40;;;9.20;81.90;;;;;;4961787;28;20560;-82
2022/04/25 08:11:00;;;;;;;9.65;5.82;;;9.30;81.40;;;;;;4996776;28;20081;-86
2022/04/25 08:19:01;;;;;;;9.20;5.50;;;9.40;81.30;;;;;;5001039;28;20078;-88
2022/04/25 08:21:29;;;;;;;11.80;6.72;;;9.40;81.20;;;;;;4986887;28;20038;-88
2022/04/25 08:23:58;;;;;;;9.82;6.18;;;9.50;81.20;;;;;;4987544;28;20514;-88
2022/04/25 08:26:26;;;;;;;10.40;6.45;;;9.50;81.10;;;;;;5017467;28;20053;-88
2022/04/25 08:28:54;;;;;;;9.25;5.72;;;9.60;81.10;;;;;;5003366;28;20054;-88
2022/04/25 08:31:31;;;;;;;8.23;5.13;;;9.70;81.00;;;;;;4989310;28;20065;-85
2022/04/25 08:33:59;;;;;;;9.73;5.20;;;9.70;81.00;;;;;;4999977;28;20055;-85
2022/04/25 08:36:28;;;;;;;8.40;4.32;;;9.70;80.90;;;;;;4967260;28;20048;-87
2022/04/25 08:38:56;;;;;;;9.60;5.15;;;9.70;80.90;;;;;;5009249;28;20054;-85
2022/04/25 08:41:45;;;;;;;8.27;4.82;;;9.70;80.90;;;;;;4992160;28;20503;-84
2022/04/25 08:44:16;;;;;;;8.85;4.30;;;9.70;80.90;;;;;;5013224;28;20045;-87
2022/04/25 08:46:49;;;;;;;8.55;5.00;;;9.80;81.00;;;;;;4997204;28;20395;-83
2022/04/25 08:49:18;;;;;;;9.35;5.70;;;9.80;81.10;;;;;;5004799;28;20046;-84
2022/04/25 08:51:47;;;;;;;9.15;5.80;;;9.80;81.10;;;;;;5013561;28;20048;-85
2022/04/25 08:54:15;;;;;;;10.52;5.65;;;9.80;81.00;;;;;;5004818;28;20042;-85
2022/04/25 08:56:42;;;;;;;10.20;6.20;;;9.90;81.10;;;;;;5012050;28;20053;-85
2022/04/25 08:59:10;;;;;;;10.25;6.18;;;9.90;81.10;;;;;;5012616;28;20037;-86
2022/04/25 09:01:40;;;;;;;12.30;7.63;;;9.90;81.00;;;;;;5009019;28;20042;-86
2022/04/25 09:04:08;;;;;;;9.80;6.28;;;9.90;80.90;;;;;;5002657;28;20053;-86
2022/04/25 09:06:35;;;;;;;12.23;6.80;;;9.90;80.90;;;;;;4990614;28;20042;-86
2022/04/25 09:09:03;;;;;;;11.07;7.82;;;10.00;80.90;;;;;;4995499;28;20049;-86
2022/04/25 09:14:16;;;;;;;15.57;8.75;;;10.30;80.60;;;;;;5004686;28;20069;-87
2022/04/25 09:16:43;;;;;;;13.77;8.30;;;10.30;80.30;;;;;;4999418;28;20719;-86
2022/04/25 09:19:10;;;;;;;14.38;7.75;;;10.40;80.30;;;;;;4999840;28;20426;-85
2022/04/25 09:21:42;;;;;;;12.43;7.93;;;10.40;80.20;;;;;;4984497;28;20049;-86
2022/04/25 09:24:28;;;;;;;13.98;8.50;;;10.40;80.20;;;;;;4996554;28;20056;-86
2022/04/25 09:27:10;;;;;;;12.50;7.70;;;10.30;80.10;;;;;;5004496;28;20466;-86
2022/04/25 09:29:39;;;;;;;13.55;8.15;;;10.30;80.20;;;;;;4994636;28;20050;-86
2022/04/25 09:32:09;;;;;;;12.48;7.70;;;10.30;80.20;;;;;;5006250;28;20049;-87
2022/04/25 09:37:46;;;;;;;11.88;7.78;;;10.40;80.10;;;;;;5017534;28;20061;-86
2022/04/25 09:40:22;;;;;;;13.18;7.63;;;10.40;79.90;;;;;;4987136;28;20038;-87
2022/04/25 09:43:08;;;;;;;15.57;8.57;;;10.40;79.90;;;;;;4990351;28;20045;-87
2022/04/25 09:45:39;;;;;;;13.77;8.50;;;10.40;80.00;;;;;;5013093;28;20427;-86
2022/04/25 09:48:11;;;;;;;14.57;9.55;;;10.40;80.00;;;;;;5002702;28;20061;-86
2022/04/25 09:51:03;;;;;;;13.07;7.53;;;10.40;80.10;;;;;;4996418;28;20046;-87
2022/04/25 09:53:40;;;;;;;13.18;8.20;;;10.40;80.20;;;;;;4998551;28;20077;-91
2022/04/25 09:56:17;;;;;;;11.57;7.15;;;10.40;80.20;;;;;;4980871;28;20061;-91
2022/04/25 09:59:00;;;;;;;13.23;7.18;;;10.40;80.20;;;;;;4993392;28;20104;-88
2022/04/25 10:01:29;;;;;;;12.93;7.70;;;10.50;80.00;;;;;;4977469;28;20121;-88
2022/04/25 10:03:58;;;;;;;10.90;7.18;;;10.50;80.00;;;;;;5001406;28;20047;-85
2022/04/25 10:06:32;;;;;;;12.63;7.70;;;10.50;79.90;;;;;;4985776;28;20038;-88
2022/04/25 10:09:08;;;;;;;11.57;6.43;;;10.50;79.90;;;;;;5007785;28;20041;-88
2022/04/25 10:11:42;;;;;;;10.15;6.85;;;10.50;79.90;;;;;;4990221;28;20057;-85
2022/04/25 10:14:10;;;;;;;9.88;6.82;;;10.50;79.90;;;;;;4993900;28;20066;-89
2022/04/25 10:16:37;;;;;;;9.75;5.60;;;10.60;79.90;;;;;;4981392;28;20062;-86
2022/04/25 10:19:06;;;;;;;8.85;5.07;;;10.60;79.80;;;;;;4974401;28;20538;-87
2022/04/25 10:21:36;;;;;;;9.20;5.15;;;10.60;79.70;;;;;;4978916;28;20056;-84
2022/04/25 10:24:05;;;;;;;7.40;4.07;;;10.60;79.70;;;;;;4989075;28;21242;-79
2022/04/25 10:26:41;;;;;;;8.88;5.88;;;10.70;79.70;;;;;;4989806;28;20137;-84
2022/04/25 10:29:37;;;;;;;10.57;6.65;;;10.70;80.30;;;;;;4993730;28;20050;-89
2022/04/25 10:32:08;;;;;;;10.45;5.60;;;10.70;79.60;;;;;;4983224;28;20046;-82
2022/04/25 10:35:04;;;;;;;9.93;5.78;;;10.50;79.70;;;;;;4977430;28;20418;-81
2022/04/25 10:37:35;;;;;;;11.85;7.03;;;10.60;79.90;;;;;;5008245;28;20129;-82
2022/04/25 10:47:05;;;;;;;8.52;5.80;;;10.60;79.60;;;;;;5007239;28;20045;-88
2022/04/25 10:49:34;;;;;;;9.18;5.45;;;10.60;79.30;;;;;;5008980;28;20069;-86
2022/04/25 10:52:03;;;;;;;9.18;6.15;;;10.60;79.10;;;;;;5005351;28;20053;-86
2022/04/25 10:54:53;;;;;;;8.52;5.25;;;10.60;79.00;;;;;;4991354;28;20457;-85
2022/04/25 10:57:20;;;;;;;10.40;5.22;;;10.80;78.90;;;;;;4991749;28;20046;-88
2022/04/25 10:59:47;;;;;;;11.07;5.65;;;10.80;78.70;;;;;;5000079;28;20100;-87
2022/04/25 11:02:28;;;;;;;8.77;4.65;;;11.00;78.40;;;;;;5001462;28;20391;-83
2022/04/25 11:05:10;;;;;;;6.97;4.40;;;11.10;78.10;;;;;;4997775;28;20050;-84
2022/04/25 11:07:39;;;;;;;8.55;4.65;;;11.20;78.00;;;;;;4999646;28;20051;-83
2022/04/25 11:10:07;;;;;;;9.55;5.47;;;11.20;77.90;;;;;;4992727;28;20132;-83
2022/04/25 11:12:56;;;;;;;9.55;5.38;;;11.30;78.40;;;;;;5002657;28;20461;-83
2022/04/25 11:15:43;;;;;;;6.95;4.50;;;11.30;77.50;;;;;;5003850;28;20058;-83
2022/04/25 11:21:05;;;;;;;6.68;3.95;;;11.30;77.60;;;;;;4974583;28;20050;-84
2022/04/25 11:23:34;;;;;;;5.90;3.33;;;11.30;77.50;;;;;;4976336;28;20034;-83
2022/04/25 11:26:07;;;;;;;8.30;4.68;;;11.40;77.30;;;;;;4975947;28;20046;-86
2022/04/25 11:31:25;;;;;;;6.38;3.75;;;11.70;76.70;;;;;;5003927;28;20049;-83
2022/04/25 11:33:55;;;;;;;8.32;5.32;;;11.70;76.60;;;;;;5001557;28;20054;-86
2022/04/25 11:36:23;;;;;;;10.15;5.85;;;11.60;76.60;;;;;;4993004;28;20042;-86
2022/04/25 11:41:40;;;;;;;12.05;7.35;;;11.50;76.70;;;;;;4982694;28;20038;-86
2022/04/25 11:44:08;;;;;;;11.10;6.07;;;11.30;76.80;;;;;;4983893;28;20046;-85
2022/04/25 11:46:37;;;;;;;10.10;6.13;;;11.20;77.00;;;;;;4991203;28;20050;-88
2022/04/25 11:49:06;;;;;;;11.07;7.28;;;11.20;77.20;;;;;;4980949;28;20218;-82
2022/04/25 11:51:40;;;;;;;11.23;5.75;;;11.20;77.30;;;;;;4977602;28;20100;-84
2022/04/25 11:54:10;;;;;;;9.02;5.15;;;11.20;77.20;;;;;;4990810;28;20047;-83
2022/04/25 11:56:41;;;;;;;8.73;5.38;;;11.20;77.10;;;;;;4992010;28;20038;-81
2022/04/25 11:59:12;;;;;;;8.02;4.80;;;11.30;77.00;;;;;;5006325;28;20038;-84
2022/04/25 12:01:41;;;;;;;7.10;4.15;;;11.40;76.90;;;;;;4991264;28;20114;-81
2022/04/25 12:04:16;;;;;;;7.32;4.60;;;11.40;76.80;;;;;;5030330;28;20046;-85
2022/04/25 12:06:58;;;;;;;8.82;4.60;;;11.50;76.70;;;;;;4980072;28;20050;-83
2022/04/25 12:17:52;;;;;;;6.65;3.65;;;11.60;76.60;;;;;;4979916;28;20076;-86
2022/04/25 12:20:30;;;;;;;7.97;3.70;;;11.80;76.40;;;;;;4993908;28;20132;-87
2022/04/25 12:22:59;;;;;;;6.90;4.05;;;11.80;76.00;;;;;;5001455;28;20048;-88
2022/04/25 12:25:28;;;;;;;9.23;4.50;;;11.80;76.10;;;;;;5009193;28;20065;-83
2022/04/25 12:28:22;;;;;;;7.80;4.70;;;11.80;76.10;;;;;;4994438;28;20046;-86
2022/04/25 12:31:08;;;;;;;7.43;4.32;;;11.80;75.90;;;;;;5010618;28;20137;-86
2022/04/25 12:33:44;;;;;;;5.30;3.78;;;11.80;76.00;;;;;;4991097;28;20042;-86
2022/04/25 12:36:18;;;;;;;6.78;4.47;;;11.90;75.90;;;;;;4989765;28;20054;-84
2022/04/25 12:38:58;;;;;;;7.78;4.72;;;11.90;75.80;;;;;;4983540;28;20148;-85
2022/04/25 12:41:34;;;;;;;8.98;5.32;;;11.90;75.70;;;;;;4993662;28;20053;-84
2022/04/25 12:44:22;;;;;;;9.60;5.03;;;11.90;75.70;;;;;;5002004;28;20425;-85
2022/04/25 12:46:55;;;;;;;7.45;4.78;;;11.90;75.70;;;;;;4994004;28;20054;-86
2022/04/25 12:49:38;;;;;;;7.57;4.45;;;11.80;75.80;;;;;;4990629;28;20146;-87
2022/04/25 12:52:08;;;;;;;8.30;4.38;;;11.70;76.00;;;;;;4981687;28;20050;-81
2022/04/25 12:54:46;;;;;;;9.75;5.25;;;11.60;76.20;;;;;;4992559;28;20050;-85
2022/04/25 12:57:19;;;;;;;10.45;6.18;;;11.50;76.30;;;;;;4996794;28;20048;-82
2022/04/25 12:59:57;;;;;;;7.82;4.80;;;11.40;76.50;;;;;;5007791;28;20112;-86
2022/04/25 13:02:32;;;;;;;8.13;4.53;;;11.30;76.60;;;;;;5006529;28;20048;-86
2022/04/25 13:05:11;;;;;;;6.97;3.97;;;11.30;76.70;;;;;;4997133;28;20100;-85
2022/04/25 13:07:46;;;;;;;7.25;4.57;;;11.30;76.70;;;;;;4975901;28;20053;-77
2022/04/25 13:10:16;;;;;;;6.28;3.85;;;11.30;76.60;;;;;;5007607;28;20046;-82
2022/04/25 13:12:52;;;;;;;6.45;3.88;;;11.30;76.60;;;;;;4992676;28;20065;-80
2022/04/25 13:15:20;;;;;;;8.20;4.18;;;11.30;76.60;;;;;;4984736;28;20169;-78
2022/04/25 13:17:48;;;;;;;8.02;4.78;;;11.30;76.70;;;;;;4993932;28;20053;-82
2022/04/25 13:20:17;;;;;;;9.88;6.25;;;11.30;76.80;;;;;;4991337;28;20047;-82
2022/04/25 13:22:45;;;;;;;11.18;5.72;;;11.30;76.80;;;;;;4993591;28;20046;-81
2022/04/25 13:25:16;;;;;;;8.30;5.10;;;11.30;76.70;;;;;;4976675;28;20049;-80
2022/04/25 13:27:47;;;;;;;7.63;4.50;;;11.40;76.70;;;;;;5006458;28;20038;-81
2022/04/25 13:30:16;;;;;;;7.88;5.18;;;11.40;76.50;;;;;;4998233;28;20046;-82
2022/04/25 13:32:44;;;;;;;8.32;4.97;;;11.50;76.40;;;;;;4971241;28;20041;-82
2022/04/25 13:35:14;;;;;;;9.40;5.40;;;11.50;76.30;;;;;;4990025;28;20038;-83
2022/04/25 13:37:42;;;;;;;8.27;4.63;;;11.60;76.30;;;;;;5005082;28;20560;-81
2022/04/25 13:40:10;;;;;;;8.73;5.80;;;11.60;76.30;;;;;;4986584;28;20151;-79
2022/04/25 13:42:38;;;;;;;9.18;5.40;;;11.60;76.30;;;;;;4995693;28;20058;-78
2022/04/25 13:45:06;;;;;;;9.52;5.90;;;11.60;76.30;;;;;;4994905;28;20038;-79
2022/04/25 13:47:35;;;;;;;6.30;3.60;;;11.50;76.20;;;;;;4988193;28;20034;-78
2022/04/25 13:50:03;;;;;;;7.13;4.82;;;11.60;76.20;;;;;;4977279;28;20045;-79
2022/04/25 13:52:30;;;;;;;8.65;4.45;;;11.70;76.00;;;;;;4974037;28;20042;-81
2022/04/25 13:54:57;;;;;;;10.27;6.55;;;11.80;75.90;;;;;;4994163;28;20561;-78
2022/04/25 13:57:24;;;;;;;11.18;5.32;;;11.90;75.70;;;;;;4978637;28;20126;-78
2022/04/25 13:59:51;;;;;;;7.45;4.95;;;12.10;75.50;;;;;;4973788;28;20046;-77
2022/04/25 14:05:05;;;;;;;8.02;4.93;;;12.20;74.80;;;;;;5006897;28;20046;-80
2022/04/25 14:07:32;;;;;;;8.40;4.75;;;12.30;74.90;;;;;;4989429;28;20057;-78